Akebono — JG5644 — position and weather

sailwx.info

Track history (hours):
 
Tides and Currents Weather Stations Pressure Air Temp Water Temp Dewpoint Dewpoint Depression Visibility Wind Speed Wind Dir Waves Ship Positions

Akebono

Last reported at 2014-Aug-20 08:33 UTC. Time now 2014-Aug-20 10:45 UTC.
Position N 35°27' E 139°42'.

Length 33 m; draft 4.4 m.

Type: Tug. MMSI: 431000233.

Date/timePositionNaut miles runAvg speedWind from/ knotsBaromVisibWave heightAir tempDewpointWater temp
2014-Aug-20 08:33N 35°27' E 139°42'2 2.4
2014-Aug-20 07:33N 35°29' E 139°45'0 0.2
2014-Aug-20 06:33N 35°29' E 139°45'0 0.3
2014-Aug-20 05:33N 35°29' E 139°44'4 4.2
2014-Aug-20 04:33N 35°27' E 139°40'1 0.5
2014-Aug-20 03:33N 35°27' E 139°39'0 0.0
2014-Aug-20 02:33N 35°27' E 139°39'0 0.0
2014-Aug-20 01:33N 35°27' E 139°39'2 2.0
2014-Aug-20 00:34N 35°27' E 139°42'1 1.3
2014-Aug-19 23:34N 35°25' E 139°42'4 4.0
2014-Aug-19 22:33N 35°29' E 139°43'3 3.1
2014-Aug-19 21:33N 35°27' E 139°46'3 3.0
2014-Aug-19 20:33N 35°27' E 139°42'2 2.2
2014-Aug-19 19:33N 35°27' E 139°39'2 0.2
2014-Aug-19 07:34N 35°28' E 139°41'5 4.7
2014-Aug-19 06:33N 35°31' E 139°46'7 6.8
2014-Aug-19 05:33N 35°27' E 139°39'0 0.3
2014-Aug-19 04:33N 35°27' E 139°39'1 1.4
2014-Aug-19 03:33N 35°26' E 139°41'1 1.5
2014-Aug-19 02:33N 35°27' E 139°39'0 0.1
2014-Aug-19 01:34N 35°27' E 139°39'0 0.0
2014-Aug-19 00:34N 35°27' E 139°39'0 0.0
2014-Aug-18 23:33N 35°27' E 139°39'0 0.0
2014-Aug-18 22:33N 35°27' E 139°39'4 0.1
2014-Aug-17 18:33N 35°28' E 139°44'3 3.0
2014-Aug-17 17:33N 35°26' E 139°41'1 0.8
2014-Aug-17 16:33N 35°26' E 139°42'4 3.8
2014-Aug-17 15:34N 35°22' E 139°41'6 6.4
2014-Aug-17 14:34N 35°27' E 139°45'4 4.4
2014-Aug-17 13:34N 35°27' E 139°40'0 0.2
2014-Aug-17 12:33N 35°27' E 139°39'0 0.0
2014-Aug-17 11:33N 35°27' E 139°39'0 0.0
2014-Aug-17 10:33N 35°27' E 139°39'0 0.0
2014-Aug-17 09:33N 35°27' E 139°39'0 0.0
2014-Aug-17 08:33N 35°27' E 139°39'0 0.0
2014-Aug-17 07:33N 35°27' E 139°39'0 0.0
2014-Aug-17 06:33N 35°27' E 139°39'0 0.0
2014-Aug-17 05:33N 35°27' E 139°39'0 0.0
2014-Aug-17 04:33N 35°27' E 139°39'3 2.6
2014-Aug-17 03:33N 35°27' E 139°43'2 1.9
2014-Aug-17 02:34N 35°28' E 139°40'1 1.3
2014-Aug-17 01:34N 35°27' E 139°39'0 0.0
2014-Aug-17 00:33N 35°27' E 139°39'0 0.0
2014-Aug-16 23:33N 35°27' E 139°39'0 0.0
2014-Aug-16 22:33N 35°27' E 139°39'0 0.0
2014-Aug-16 07:08N 35°27' E 139°39'0 0.0
2014-Aug-16 06:33N 35°27' E 139°39'2 1.6
2014-Aug-16 05:34N 35°27' E 139°41'1 1.5
2014-Aug-16 04:34N 35°27' E 139°39'0 0.0
2014-Aug-16 03:33N 35°27' E 139°39'0 0.0
2014-Aug-16 02:33N 35°27' E 139°39'2 1.7
2014-Aug-16 01:33N 35°27' E 139°41'4 4.0
2014-Aug-16 00:34N 35°24' E 139°38'2 2.4
2014-Aug-15 23:33N 35°23' E 139°41'4 4.3
2014-Aug-15 22:33N 35°28' E 139°42'2 2.0
2014-Aug-15 21:33N 35°27' E 139°44'4 3.7
2014-Aug-15 20:33N 35°27' E 139°39'0 0.0
2014-Aug-15 07:07N 35°27' E 139°39'0 0.0
2014-Aug-15 06:33N 35°27' E 139°39'0 0.0
2014-Aug-15 05:33N 35°27' E 139°39'0 0.0
2014-Aug-15 04:33N 35°27' E 139°39'3 3.1
2014-Aug-15 03:33N 35°24' E 139°38'0 0.1
2014-Aug-15 02:33N 35°24' E 139°38'2 2.5
2014-Aug-15 01:33N 35°23' E 139°41'0 0.3
2014-Aug-15 00:33N 35°23' E 139°41'0 0.0
2014-Aug-14 23:33N 35°23' E 139°41'3 2.7
2014-Aug-14 22:33N 35°25' E 139°42'1 1.2
2014-Aug-14 21:33N 35°26' E 139°42'2 2.5
2014-Aug-14 20:33N 35°27' E 139°39'1 0.1
2014-Aug-14 08:34N 35°27' E 139°41'1 1.2
2014-Aug-14 07:33N 35°26' E 139°42'0 0.0
2014-Aug-14 06:33N 35°26' E 139°42'1 1.2
2014-Aug-14 05:33N 35°27' E 139°40'1 0.9
2014-Aug-14 04:33N 35°28' E 139°41'0 0.0
2014-Aug-14 03:33N 35°28' E 139°41'0 0.0
2014-Aug-14 02:33N 35°28' E 139°41'4 3.7
2014-Aug-14 01:33N 35°24' E 139°42'2 2.1
2014-Aug-14 00:33N 35°25' E 139°39'0 0.1
2014-Aug-13 23:33N 35°25' E 139°39'3 2.7
2014-Aug-13 22:33N 35°25' E 139°42'3 3.3
2014-Aug-13 21:33N 35°27' E 139°39'0 0.0
2014-Aug-13 00:34N 35°27' E 139°40'2 2.0
2014-Aug-12 23:34N 35°26' E 139°42'1 1.3
2014-Aug-12 22:34N 35°27' E 139°41'1 1.2
2014-Aug-12 21:33N 35°26' E 139°42'2 2.1
2014-Aug-12 20:33N 35°27' E 139°39'1 0.2
2014-Aug-12 14:34N 35°28' E 139°41'1 1.1
2014-Aug-12 13:34N 35°28' E 139°42'0 0.3
2014-Aug-12 12:34N 35°28' E 139°42'0 0.0
2014-Aug-12 11:33N 35°28' E 139°42'1 0.8
2014-Aug-12 10:33N 35°27' E 139°43'3 2.7
2014-Aug-12 09:33N 35°27' E 139°40'1 0.8
2014-Aug-12 08:33N 35°28' E 139°40'0 0.0
2014-Aug-12 07:33N 35°28' E 139°40'0 0.0
2014-Aug-12 06:33N 35°28' E 139°40'0 0.0
2014-Aug-12 05:33N 35°28' E 139°40'0 0.0
2014-Aug-12 04:33N 35°28' E 139°40'4 3.5
2014-Aug-12 03:33N 35°29' E 139°45'1 0.6
2014-Aug-12 02:34N 35°28' E 139°45'1 1.4
2014-Aug-12 01:33N 35°27' E 139°44'4 3.9
2014-Aug-12 00:33N 35°27' E 139°39'0 0.0
2014-Aug-11 23:33N 35°27' E 139°39'2 1.7
2014-Aug-11 22:33N 35°28' E 139°41'2 1.9
2014-Aug-11 21:34N 35°27' E 139°43'3 2.8
2014-Aug-11 20:34N 35°27' E 139°39'0 0.0
2014-Aug-11 10:19N 35°27' E 139°39'5 6.9
2014-Aug-11 09:33N 35°29' E 139°45'1 1.4
2014-Aug-11 08:33N 35°28' E 139°46'5 5.3
2014-Aug-11 07:33N 35°27' E 139°39'0 0.0
2014-Aug-11 06:33N 35°27' E 139°39'0 0.0
2014-Aug-11 05:33N 35°27' E 139°39'0 0.0
2014-Aug-11 04:33N 35°27' E 139°39'0 0.0
2014-Aug-11 03:33N 35°27' E 139°39'2 1.7
2014-Aug-11 02:33N 35°27' E 139°41'2 1.7
2014-Aug-11 01:33N 35°27' E 139°39'0 0.0
2014-Aug-11 00:33N 35°27' E 139°39'0 0.0
2014-Aug-10 23:33N 35°27' E 139°39'1 1.4
2014-Aug-10 22:34N 35°28' E 139°38'  
Track history (hours):
 
Tides and Currents Weather Stations Pressure Air Temp Water Temp Dewpoint Dewpoint Depression Visibility Wind Speed Wind Dir Waves Ship Positions

Akebono

Last reported at 2014-Aug-20 08:33 UTC. Time now 2014-Aug-20 10:45 UTC.
Position N 35°27' E 139°42'.

Length 33 m; draft 4.4 m.

Type: Tug. MMSI: 431000233.

Date/timePositionNaut miles runAvg speedWind from/ knotsBaromVisibWave heightAir tempDewpointWater temp
2014-Aug-20 08:33N 35°27' E 139°42'2 2.4
2014-Aug-20 07:33N 35°29' E 139°45'0 0.2
2014-Aug-20 06:33N 35°29' E 139°45'0 0.3
2014-Aug-20 05:33N 35°29' E 139°44'4 4.2
2014-Aug-20 04:33N 35°27' E 139°40'1 0.5
2014-Aug-20 03:33N 35°27' E 139°39'0 0.0
2014-Aug-20 02:33N 35°27' E 139°39'0 0.0
2014-Aug-20 01:33N 35°27' E 139°39'2 2.0
2014-Aug-20 00:34N 35°27' E 139°42'1 1.3
2014-Aug-19 23:34N 35°25' E 139°42'4 4.0
2014-Aug-19 22:33N 35°29' E 139°43'3 3.1
2014-Aug-19 21:33N 35°27' E 139°46'3 3.0
2014-Aug-19 20:33N 35°27' E 139°42'2 2.2
2014-Aug-19 19:33N 35°27' E 139°39'2 0.2
2014-Aug-19 07:34N 35°28' E 139°41'5 4.7
2014-Aug-19 06:33N 35°31' E 139°46'7 6.8
2014-Aug-19 05:33N 35°27' E 139°39'0 0.3
2014-Aug-19 04:33N 35°27' E 139°39'1 1.4
2014-Aug-19 03:33N 35°26' E 139°41'1 1.5
2014-Aug-19 02:33N 35°27' E 139°39'0 0.1
2014-Aug-19 01:34N 35°27' E 139°39'0 0.0
2014-Aug-19 00:34N 35°27' E 139°39'0 0.0
2014-Aug-18 23:33N 35°27' E 139°39'0 0.0
2014-Aug-18 22:33N 35°27' E 139°39'4 0.1
2014-Aug-17 18:33N 35°28' E 139°44'3 3.0
2014-Aug-17 17:33N 35°26' E 139°41'1 0.8
2014-Aug-17 16:33N 35°26' E 139°42'4 3.8
2014-Aug-17 15:34N 35°22' E 139°41'6 6.4
2014-Aug-17 14:34N 35°27' E 139°45'4 4.4
2014-Aug-17 13:34N 35°27' E 139°40'0 0.2
2014-Aug-17 12:33N 35°27' E 139°39'0 0.0
2014-Aug-17 11:33N 35°27' E 139°39'0 0.0
2014-Aug-17 10:33N 35°27' E 139°39'0 0.0
2014-Aug-17 09:33N 35°27' E 139°39'0 0.0
2014-Aug-17 08:33N 35°27' E 139°39'0 0.0
2014-Aug-17 07:33N 35°27' E 139°39'0 0.0
2014-Aug-17 06:33N 35°27' E 139°39'0 0.0
2014-Aug-17 05:33N 35°27' E 139°39'0 0.0
2014-Aug-17 04:33N 35°27' E 139°39'3 2.6
2014-Aug-17 03:33N 35°27' E 139°43'2 1.9
2014-Aug-17 02:34N 35°28' E 139°40'1 1.3
2014-Aug-17 01:34N 35°27' E 139°39'0 0.0
2014-Aug-17 00:33N 35°27' E 139°39'0 0.0
2014-Aug-16 23:33N 35°27' E 139°39'0 0.0
2014-Aug-16 22:33N 35°27' E 139°39'0 0.0
2014-Aug-16 07:08N 35°27' E 139°39'0 0.0
2014-Aug-16 06:33N 35°27' E 139°39'2 1.6
2014-Aug-16 05:34N 35°27' E 139°41'1 1.5
2014-Aug-16 04:34N 35°27' E 139°39'0 0.0
2014-Aug-16 03:33N 35°27' E 139°39'0 0.0
2014-Aug-16 02:33N 35°27' E 139°39'2 1.7
2014-Aug-16 01:33N 35°27' E 139°41'4 4.0
2014-Aug-16 00:34N 35°24' E 139°38'2 2.4
2014-Aug-15 23:33N 35°23' E 139°41'4 4.3
2014-Aug-15 22:33N 35°28' E 139°42'2 2.0
2014-Aug-15 21:33N 35°27' E 139°44'4 3.7
2014-Aug-15 20:33N 35°27' E 139°39'0 0.0
2014-Aug-15 07:07N 35°27' E 139°39'0 0.0
2014-Aug-15 06:33N 35°27' E 139°39'0 0.0
2014-Aug-15 05:33N 35°27' E 139°39'0 0.0
2014-Aug-15 04:33N 35°27' E 139°39'3 3.1
2014-Aug-15 03:33N 35°24' E 139°38'0 0.1
2014-Aug-15 02:33N 35°24' E 139°38'2 2.5
2014-Aug-15 01:33N 35°23' E 139°41'0 0.3
2014-Aug-15 00:33N 35°23' E 139°41'0 0.0
2014-Aug-14 23:33N 35°23' E 139°41'3 2.7
2014-Aug-14 22:33N 35°25' E 139°42'1 1.2
2014-Aug-14 21:33N 35°26' E 139°42'2 2.5
2014-Aug-14 20:33N 35°27' E 139°39'1 0.1
2014-Aug-14 08:34N 35°27' E 139°41'1 1.2
2014-Aug-14 07:33N 35°26' E 139°42'0 0.0
2014-Aug-14 06:33N 35°26' E 139°42'1 1.2
2014-Aug-14 05:33N 35°27' E 139°40'1 0.9
2014-Aug-14 04:33N 35°28' E 139°41'0 0.0
2014-Aug-14 03:33N 35°28' E 139°41'0 0.0
2014-Aug-14 02:33N 35°28' E 139°41'4 3.7
2014-Aug-14 01:33N 35°24' E 139°42'2 2.1
2014-Aug-14 00:33N 35°25' E 139°39'0 0.1
2014-Aug-13 23:33N 35°25' E 139°39'3 2.7
2014-Aug-13 22:33N 35°25' E 139°42'3 3.3
2014-Aug-13 21:33N 35°27' E 139°39'0 0.0
2014-Aug-13 00:34N 35°27' E 139°40'2 2.0
2014-Aug-12 23:34N 35°26' E 139°42'1 1.3
2014-Aug-12 22:34N 35°27' E 139°41'1 1.2
2014-Aug-12 21:33N 35°26' E 139°42'2 2.1
2014-Aug-12 20:33N 35°27' E 139°39'1 0.2
2014-Aug-12 14:34N 35°28' E 139°41'1 1.1
2014-Aug-12 13:34N 35°28' E 139°42'0 0.3
2014-Aug-12 12:34N 35°28' E 139°42'0 0.0
2014-Aug-12 11:33N 35°28' E 139°42'1 0.8
2014-Aug-12 10:33N 35°27' E 139°43'3 2.7
2014-Aug-12 09:33N 35°27' E 139°40'1 0.8
2014-Aug-12 08:33N 35°28' E 139°40'0 0.0
2014-Aug-12 07:33N 35°28' E 139°40'0 0.0
2014-Aug-12 06:33N 35°28' E 139°40'0 0.0
2014-Aug-12 05:33N 35°28' E 139°40'0 0.0
2014-Aug-12 04:33N 35°28' E 139°40'4 3.5
2014-Aug-12 03:33N 35°29' E 139°45'1 0.6
2014-Aug-12 02:34N 35°28' E 139°45'1 1.4
2014-Aug-12 01:33N 35°27' E 139°44'4 3.9
2014-Aug-12 00:33N 35°27' E 139°39'0 0.0
2014-Aug-11 23:33N 35°27' E 139°39'2 1.7
2014-Aug-11 22:33N 35°28' E 139°41'2 1.9
2014-Aug-11 21:34N 35°27' E 139°43'3 2.8
2014-Aug-11 20:34N 35°27' E 139°39'0 0.0
2014-Aug-11 10:19N 35°27' E 139°39'5 6.9
2014-Aug-11 09:33N 35°29' E 139°45'1 1.4
2014-Aug-11 08:33N 35°28' E 139°46'5 5.3
2014-Aug-11 07:33N 35°27' E 139°39'0 0.0
2014-Aug-11 06:33N 35°27' E 139°39'0 0.0
2014-Aug-11 05:33N 35°27' E 139°39'0 0.0
2014-Aug-11 04:33N 35°27' E 139°39'0 0.0
2014-Aug-11 03:33N 35°27' E 139°39'2 1.7
2014-Aug-11 02:33N 35°27' E 139°41'2 1.7
2014-Aug-11 01:33N 35°27' E 139°39'0 0.0
2014-Aug-11 00:33N 35°27' E 139°39'0 0.0
2014-Aug-10 23:33N 35°27' E 139°39'1 1.4
2014-Aug-10 22:34N 35°28' E 139°38'  

Dump ship's entire track history